sensor_id;sensor_type;location;lat;lon;timestamp;pressure;altitude;pressure_sealevel;temperature;humidity
70902;BME280;58548;47.210;8.618;2023-03-14T00:02:26;93005.16;;;18.38;41.10
70902;BME280;58548;47.210;8.618;2023-03-14T00:04:54;92900.72;;;17.58;41.51
70902;BME280;58548;47.210;8.618;2023-03-14T00:07:21;93024.97;;;18.25;41.90
70902;BME280;58548;47.210;8.618;2023-03-14T00:09:46;93037.34;;;17.99;41.97
70902;BME280;58548;47.210;8.618;2023-03-14T00:12:13;93030.50;;;18.13;41.81
70902;BME280;58548;47.210;8.618;2023-03-14T00:14:39;92974.88;;;17.46;41.66
70902;BME280;58548;47.210;8.618;2023-03-14T00:17:11;93039.84;;;17.62;41.58
70902;BME280;58548;47.210;8.618;2023-03-14T00:19:41;92987.22;;;17.35;41.40
70902;BME280;58548;47.210;8.618;2023-03-14T00:22:07;93021.25;;;17.31;41.13
70902;BME280;58548;47.210;8.618;2023-03-14T00:24:38;93027.50;;;17.10;41.76
70902;BME280;58548;47.210;8.618;2023-03-14T00:27:09;92891.84;;;15.99;42.61
70902;BME280;58548;47.210;8.618;2023-03-14T00:29:35;92970.19;;;16.57;42.89
70902;BME280;58548;47.210;8.618;2023-03-14T00:32:01;92938.22;;;16.05;42.67
70902;BME280;58548;47.210;8.618;2023-03-14T00:34:34;92985.16;;;16.13;43.04
70902;BME280;58548;47.210;8.618;2023-03-14T00:37:03;92991.44;;;16.07;43.13
70902;BME280;58548;47.210;8.618;2023-03-14T00:39:33;92878.09;;;14.82;43.62
70902;BME280;58548;47.210;8.618;2023-03-14T00:42:01;92870.19;;;15.04;44.12
70902;BME280;58548;47.210;8.618;2023-03-14T00:44:27;92941.97;;;15.55;43.92
70902;BME280;58548;47.210;8.618;2023-03-14T00:46:55;92840.91;;;14.73;44.48
70902;BME280;58548;47.210;8.618;2023-03-14T00:49:25;92908.50;;;15.22;44.38
70902;BME280;58548;47.210;8.618;2023-03-14T00:51:51;92780.34;;;14.41;44.39
70902;BME280;58548;47.210;8.618;2023-03-14T00:54:20;92793.31;;;14.70;44.05
70902;BME280;58548;47.210;8.618;2023-03-14T00:56:46;92750.06;;;14.55;43.52
70902;BME280;58548;47.210;8.618;2023-03-14T00:59:12;92855.78;;;15.12;43.15
70902;BME280;58548;47.210;8.618;2023-03-14T01:01:40;92819.06;;;14.95;43.83
70902;BME280;58548;47.210;8.618;2023-03-14T01:04:10;92858.06;;;15.31;43.67
70902;BME280;58548;47.210;8.618;2023-03-14T01:06:38;92829.50;;;15.12;43.62
70902;BME280;58548;47.210;8.618;2023-03-14T01:09:04;92792.56;;;14.97;43.54
70902;BME280;58548;47.210;8.618;2023-03-14T01:11:33;92890.91;;;15.56;43.75
70902;BME280;58548;47.210;8.618;2023-03-14T01:14:03;92860.88;;;15.46;43.71
70902;BME280;58548;47.210;8.618;2023-03-14T01:16:33;92891.03;;;15.71;43.76
70902;BME280;58548;47.210;8.618;2023-03-14T01:19:02;92768.94;;;15.02;43.76
70902;BME280;58548;47.210;8.618;2023-03-14T01:21:31;92750.72;;;14.95;43.58
70902;BME280;58548;47.210;8.618;2023-03-14T01:24:02;92836.22;;;15.58;43.75
70902;BME280;58548;47.210;8.618;2023-03-14T01:26:30;92841.38;;;15.80;43.41
70902;BME280;58548;47.210;8.618;2023-03-14T01:28:58;92772.28;;;15.25;43.28
70902;BME280;58548;47.210;8.618;2023-03-14T01:31:27;92878.94;;;15.97;43.34
70902;BME280;58548;47.210;8.618;2023-03-14T01:33:59;92870.00;;;16.04;43.30
70902;BME280;58548;47.210;8.618;2023-03-14T01:36:27;92877.91;;;16.04;43.02
70902;BME280;58548;47.210;8.618;2023-03-14T01:38:53;92762.28;;;15.27;43.27
70902;BME280;58548;47.210;8.618;2023-03-14T01:44:55;92782.44;;;15.43;43.26
70902;BME280;58548;47.210;8.618;2023-03-14T01:47:24;92858.09;;;15.96;43.21
70902;BME280;58548;47.210;8.618;2023-03-14T01:52:32;92823.97;;;15.79;43.25
70902;BME280;58548;47.210;8.618;2023-03-14T01:55:12;92860.31;;;16.15;43.26
70902;BME280;58548;47.210;8.618;2023-03-14T01:58:03;92771.94;;;15.48;43.22
70902;BME280;58548;47.210;8.618;2023-03-14T02:00:32;92835.44;;;15.95;43.39
70902;BME280;58548;47.210;8.618;2023-03-14T02:03:02;92848.19;;;16.08;42.97
70902;BME280;58548;47.210;8.618;2023-03-14T02:05:35;92846.06;;;16.05;43.15
70902;BME280;58548;47.210;8.618;2023-03-14T02:08:10;92739.25;;;15.39;42.96
70902;BME280;58548;47.210;8.618;2023-03-14T02:10:47;92732.97;;;15.40;42.91
70902;BME280;58548;47.210;8.618;2023-03-14T02:13:17;92730.81;;;15.37;42.73
70902;BME280;58548;47.210;8.618;2023-03-14T02:15:44;92838.41;;;16.04;43.00
70902;BME280;58548;47.210;8.618;2023-03-14T02:18:13;92802.19;;;15.83;42.79
70902;BME280;58548;47.210;8.618;2023-03-14T02:28:34;92747.38;;;15.75;42.64
70902;BME280;58548;47.210;8.618;2023-03-14T02:31:00;92689.81;;;15.41;42.40
70902;BME280;58548;47.210;8.618;2023-03-14T02:33:28;92792.94;;;16.19;42.22
70902;BME280;58548;47.210;8.618;2023-03-14T02:35:59;92772.09;;;16.12;42.11
70902;BME280;58548;47.210;8.618;2023-03-14T02:38:40;92673.00;;;15.47;42.19
70902;BME280;58548;47.210;8.618;2023-03-14T02:41:07;92678.00;;;15.44;42.12
70902;BME280;58548;47.210;8.618;2023-03-14T02:43:36;92737.50;;;15.88;41.79
70902;BME280;58548;47.210;8.618;2023-03-14T02:46:07;92726.63;;;15.84;41.65
70902;BME280;58548;47.210;8.618;2023-03-14T02:51:14;92763.72;;;16.20;41.18
70902;BME280;58548;47.210;8.618;2023-03-14T02:53:41;92738.59;;;16.02;41.51
70902;BME280;58548;47.210;8.618;2023-03-14T02:56:09;92674.19;;;15.67;41.06
70902;BME280;58548;47.210;8.618;2023-03-14T02:58:38;92766.03;;;16.11;40.96
70902;BME280;58548;47.210;8.618;2023-03-14T03:01:04;92730.94;;;15.95;41.14
70902;BME280;58548;47.210;8.618;2023-03-14T03:03:30;92743.34;;;16.00;41.04
70902;BME280;58548;47.210;8.618;2023-03-14T03:05:57;92753.16;;;16.15;40.48
70902;BME280;58548;47.210;8.618;2023-03-14T03:08:26;92650.41;;;15.46;40.63
70902;BME280;58548;47.210;8.618;2023-03-14T03:10:56;92638.56;;;15.49;40.36
70902;BME280;58548;47.210;8.618;2023-03-14T03:13:25;92743.94;;;16.18;40.43
70902;BME280;58548;47.210;8.618;2023-03-14T03:15:53;92639.84;;;15.41;40.59
70902;BME280;58548;47.210;8.618;2023-03-14T03:18:21;92644.38;;;15.51;40.46
70902;BME280;58548;47.210;8.618;2023-03-14T03:20:49;92702.81;;;16.06;39.83
70902;BME280;58548;47.210;8.618;2023-03-14T03:23:15;92708.03;;;15.96;40.12
70902;BME280;58548;47.210;8.618;2023-03-14T03:25:41;92679.56;;;15.88;39.74
70902;BME280;58548;47.210;8.618;2023-03-14T03:28:07;92615.13;;;15.42;40.18
70902;BME280;58548;47.210;8.618;2023-03-14T03:30:40;92707.59;;;16.09;40.25
70902;BME280;58548;47.210;8.618;2023-03-14T03:33:09;92588.25;;;15.35;40.22
70902;BME280;58548;47.210;8.618;2023-03-14T03:35:42;92707.56;;;16.15;40.13
70902;BME280;58548;47.210;8.618;2023-03-14T03:38:29;92704.97;;;16.20;40.15
70902;BME280;58548;47.210;8.618;2023-03-14T03:41:07;92711.56;;;16.27;40.21
70902;BME280;58548;47.210;8.618;2023-03-14T03:43:33;92702.38;;;16.25;40.31
70902;BME280;58548;47.210;8.618;2023-03-14T03:46:06;92704.69;;;16.16;40.20
70902;BME280;58548;47.210;8.618;2023-03-14T03:48:38;92648.00;;;15.93;39.77
70902;BME280;58548;47.210;8.618;2023-03-14T03:51:07;92690.75;;;16.21;40.21
70902;BME280;58548;47.210;8.618;2023-03-14T03:53:37;92575.66;;;15.42;40.03
70902;BME280;58548;47.210;8.618;2023-03-14T03:56:08;92698.63;;;16.16;40.08
70902;BME280;58548;47.210;8.618;2023-03-14T03:58:34;92688.38;;;16.14;39.97
70902;BME280;58548;47.210;8.618;2023-03-14T04:01:08;92695.97;;;16.10;40.31
70902;BME280;58548;47.210;8.618;2023-03-14T04:03:37;92593.31;;;15.47;40.24
70902;BME280;58548;47.210;8.618;2023-03-14T04:06:14;92690.69;;;16.10;40.43
70902;BME280;58548;47.210;8.618;2023-03-14T04:08:42;92608.63;;;15.55;40.31
70902;BME280;58548;47.210;8.618;2023-03-14T04:11:09;92596.22;;;15.45;40.40
70902;BME280;58548;47.210;8.618;2023-03-14T04:13:37;92483.34;;;14.80;40.29
70902;BME280;58548;47.210;8.618;2023-03-14T04:16:03;92671.22;;;16.06;40.52
70902;BME280;58548;47.210;8.618;2023-03-14T04:18:29;92550.84;;;15.22;40.82
70902;BME280;58548;47.210;8.618;2023-03-14T04:21:00;92553.22;;;15.24;40.76
70902;BME280;58548;47.210;8.618;2023-03-14T04:23:26;92678.28;;;16.01;41.01
70902;BME280;58548;47.210;8.618;2023-03-14T04:25:53;92566.13;;;15.31;41.11
70902;BME280;58548;47.210;8.618;2023-03-14T04:32:02;92663.78;;;15.88;41.06
70902;BME280;58548;47.210;8.618;2023-03-14T04:34:27;92671.69;;;15.88;41.23
70902;BME280;58548;47.210;8.618;2023-03-14T04:36:56;92634.75;;;15.77;41.04
70902;BME280;58548;47.210;8.618;2023-03-14T04:39:27;92641.09;;;15.81;41.02
70902;BME280;58548;47.210;8.618;2023-03-14T04:41:52;92642.09;;;15.75;41.19
70902;BME280;58548;47.210;8.618;2023-03-14T04:44:18;92588.81;;;15.47;41.39
70902;BME280;58548;47.210;8.618;2023-03-14T04:46:44;92621.81;;;15.65;40.99
70902;BME280;58548;47.210;8.618;2023-03-14T04:49:13;92551.38;;;15.19;41.21
70902;BME280;58548;47.210;8.618;2023-03-14T04:51:38;92402.66;;;14.32;40.57
70902;BME280;58548;47.210;8.618;2023-03-14T04:54:04;92599.97;;;15.65;40.07
70902;BME280;58548;47.210;8.618;2023-03-14T04:56:32;92603.13;;;15.67;40.17
70902;BME280;58548;47.210;8.618;2023-03-14T04:59:01;92609.72;;;15.70;40.31
70902;BME280;58548;47.210;8.618;2023-03-14T05:01:29;92608.41;;;15.72;39.34
70902;BME280;58548;47.210;8.618;2023-03-14T05:03:54;92502.94;;;15.10;39.46
70902;BME280;58548;47.210;8.618;2023-03-14T05:06:22;92552.22;;;15.41;39.52
70902;BME280;58548;47.210;8.618;2023-03-14T05:08:48;92515.59;;;15.18;39.50
70902;BME280;58548;47.210;8.618;2023-03-14T05:11:14;92602.59;;;15.70;39.49
70902;BME280;58548;47.210;8.618;2023-03-14T05:13:42;92491.84;;;14.98;39.36
70902;BME280;58548;47.210;8.618;2023-03-14T05:16:10;92558.81;;;15.38;39.59
70902;BME280;58548;47.210;8.618;2023-03-14T05:18:37;92565.16;;;15.52;39.57
70902;BME280;58548;47.210;8.618;2023-03-14T05:21:04;92475.25;;;14.97;39.80
70902;BME280;58548;47.210;8.618;2023-03-14T05:23:32;92581.00;;;15.63;40.00
70902;BME280;58548;47.210;8.618;2023-03-14T05:25:58;92569.41;;;15.59;39.74
70902;BME280;58548;47.210;8.618;2023-03-14T05:28:26;92565.47;;;15.56;39.95
70902;BME280;58548;47.210;8.618;2023-03-14T05:30:54;92468.16;;;14.92;39.76
70902;BME280;58548;47.210;8.618;2023-03-14T05:33:20;92557.06;;;15.64;39.55
70902;BME280;58548;47.210;8.618;2023-03-14T05:35:48;92545.47;;;15.65;39.14
70902;BME280;58548;47.210;8.618;2023-03-14T05:38:14;92515.22;;;15.58;39.59
70902;BME280;58548;47.210;8.618;2023-03-14T05:40:44;92521.78;;;15.55;39.55
70902;BME280;58548;47.210;8.618;2023-03-14T05:43:10;92374.97;;;14.62;39.88
70902;BME280;58548;47.210;8.618;2023-03-14T05:45:39;92391.78;;;14.67;40.00
70902;BME280;58548;47.210;8.618;2023-03-14T05:48:04;92499.34;;;15.37;40.07
70902;BME280;58548;47.210;8.618;2023-03-14T05:50:35;92387.81;;;14.59;40.04
70902;BME280;58548;47.210;8.618;2023-03-14T05:53:01;92504.06;;;15.30;40.33
70902;BME280;58548;47.210;8.618;2023-03-14T05:55:30;92499.03;;;15.23;40.50
70902;BME280;58548;47.210;8.618;2023-03-14T05:57:58;92394.63;;;14.55;40.24
70902;BME280;58548;47.210;8.618;2023-03-14T06:00:26;92396.22;;;14.56;40.24
70902;BME280;58548;47.210;8.618;2023-03-14T06:02:54;92506.41;;;15.21;40.15
70902;BME280;58548;47.210;8.618;2023-03-14T06:05:20;92503.22;;;15.19;40.07
70902;BME280;58548;47.210;8.618;2023-03-14T06:07:51;92503.50;;;15.17;40.27
70902;BME280;58548;47.210;8.618;2023-03-14T06:10:19;92361.16;;;14.29;40.48
70902;BME280;58548;47.210;8.618;2023-03-14T06:12:47;92378.31;;;14.42;40.49
70902;BME280;58548;47.210;8.618;2023-03-14T06:15:15;92409.66;;;14.59;40.40
70902;BME280;58548;47.210;8.618;2023-03-14T06:17:46;92370.66;;;14.41;40.32
70902;BME280;58548;47.210;8.618;2023-03-14T06:20:12;92480.59;;;15.13;40.41
70902;BME280;58548;47.210;8.618;2023-03-14T06:22:40;92453.47;;;14.97;40.08
70902;BME280;58548;47.210;8.618;2023-03-14T06:25:07;92478.97;;;15.01;40.54
70902;BME280;58548;47.210;8.618;2023-03-14T06:27:34;92475.84;;;15.04;40.76
70902;BME280;58548;47.210;8.618;2023-03-14T06:29:59;92483.44;;;15.06;40.49
70902;BME280;58548;47.210;8.618;2023-03-14T06:32:30;92492.91;;;15.07;40.81
70902;BME280;58548;47.210;8.618;2023-03-14T06:34:56;92416.44;;;14.55;40.57
70902;BME280;58548;47.210;8.618;2023-03-14T06:37:29;92372.75;;;14.33;40.64
70902;BME280;58548;47.210;8.618;2023-03-14T06:39:58;92476.34;;;15.01;40.89
70902;BME280;58548;47.210;8.618;2023-03-14T06:42:23;92477.09;;;14.91;40.87
70902;BME280;58548;47.210;8.618;2023-03-14T06:44:49;92495.56;;;15.12;40.67
70902;BME280;58548;47.210;8.618;2023-03-14T06:47:20;92368.53;;;14.32;40.91
70902;BME280;58548;47.210;8.618;2023-03-14T06:49:46;92405.44;;;14.58;41.14
70902;BME280;58548;47.210;8.618;2023-03-14T06:52:11;92475.84;;;15.15;40.58
70902;BME280;58548;47.210;8.618;2023-03-14T06:54:40;92501.97;;;15.32;40.47
70902;BME280;58548;47.210;8.618;2023-03-14T06:57:06;92409.78;;;14.80;40.55
70902;BME280;58548;47.210;8.618;2023-03-14T06:59:36;92429.53;;;14.98;40.93
70902;BME280;58548;47.210;8.618;2023-03-14T07:02:07;92508.59;;;15.50;40.65
70902;BME280;58548;47.210;8.618;2023-03-14T07:04:36;92508.38;;;15.57;40.79
70902;BME280;58548;47.210;8.618;2023-03-14T07:07:02;92535.25;;;15.74;40.96
70902;BME280;58548;47.210;8.618;2023-03-14T07:09:28;92533.22;;;15.87;40.46
70902;BME280;58548;47.210;8.618;2023-03-14T07:11:54;92456.75;;;15.40;40.33
70902;BME280;58548;47.210;8.618;2023-03-14T07:14:20;92515.00;;;15.85;40.40
70902;BME280;58548;47.210;8.618;2023-03-14T07:16:48;92503.69;;;15.85;40.51
70902;BME280;58548;47.210;8.618;2023-03-14T07:19:16;92521.66;;;16.03;40.27
70902;BME280;58548;47.210;8.618;2023-03-14T07:21:45;92555.94;;;16.29;40.50
70902;BME280;58548;47.210;8.618;2023-03-14T07:24:11;92562.00;;;16.40;40.11
70902;BME280;58548;47.210;8.618;2023-03-14T07:26:39;92544.59;;;16.28;40.12
70902;BME280;58548;47.210;8.618;2023-03-14T07:29:05;92548.03;;;16.45;40.18
70902;BME280;58548;47.210;8.618;2023-03-14T07:31:31;92447.41;;;16.01;40.50
70902;BME280;58548;47.210;8.618;2023-03-14T07:33:57;92572.53;;;17.02;40.00
70902;BME280;58548;47.210;8.618;2023-03-14T07:36:25;92558.47;;;17.27;39.36
70902;BME280;58548;47.210;8.618;2023-03-14T07:38:54;92573.19;;;17.54;38.46
70902;BME280;58548;47.210;8.618;2023-03-14T07:41:19;92574.72;;;17.66;38.83
70902;BME280;58548;47.210;8.618;2023-03-14T07:43:46;92455.69;;;17.01;38.35
70902;BME280;58548;47.210;8.618;2023-03-14T07:46:14;92587.28;;;18.00;37.84
70902;BME280;58548;47.210;8.618;2023-03-14T07:48:41;92521.38;;;17.69;37.98
70902;BME280;58548;47.210;8.618;2023-03-14T07:51:11;92573.53;;;17.92;37.62
70902;BME280;58548;47.210;8.618;2023-03-14T07:53:39;92489.84;;;17.38;37.89
70902;BME280;58548;47.210;8.618;2023-03-14T07:56:10;92573.50;;;18.03;37.55
70902;BME280;58548;47.210;8.618;2023-03-14T07:58:38;92508.78;;;17.50;37.24
70902;BME280;58548;47.210;8.618;2023-03-14T08:01:07;92492.47;;;17.43;37.25
70902;BME280;58548;47.210;8.618;2023-03-14T08:03:38;92504.28;;;17.51;37.29
70902;BME280;58548;47.210;8.618;2023-03-14T08:06:06;92602.44;;;18.23;37.56
70902;BME280;58548;47.210;8.618;2023-03-14T08:08:35;92490.00;;;17.62;37.96
70902;BME280;58548;47.210;8.618;2023-03-14T08:11:07;92596.53;;;18.42;37.79
70902;BME280;58548;47.210;8.618;2023-03-14T08:13:38;92611.66;;;18.71;37.08
70902;BME280;58548;47.210;8.618;2023-03-14T08:16:05;92567.91;;;18.54;37.20
70902;BME280;58548;47.210;8.618;2023-03-14T08:18:34;92510.78;;;18.24;36.42
70902;BME280;58548;47.210;8.618;2023-03-14T08:21:02;92493.66;;;18.16;36.56
70902;BME280;58548;47.210;8.618;2023-03-14T08:23:28;92611.53;;;18.87;36.12
70902;BME280;58548;47.210;8.618;2023-03-14T08:25:54;92611.06;;;18.79;36.16
70902;BME280;58548;47.210;8.618;2023-03-14T08:28:27;92493.66;;;18.16;35.93
70902;BME280;58548;47.210;8.618;2023-03-14T08:31:00;92610.47;;;18.88;35.85
70902;BME280;58548;47.210;8.618;2023-03-14T08:33:31;92432.44;;;17.64;36.11
70902;BME280;58548;47.210;8.618;2023-03-14T08:35:59;92628.97;;;18.88;36.23
70902;BME280;58548;47.210;8.618;2023-03-14T08:38:26;92510.56;;;18.15;36.33
70902;BME280;58548;47.210;8.618;2023-03-14T08:41:00;92625.25;;;18.89;35.84
70902;BME280;58548;47.210;8.618;2023-03-14T08:43:30;92639.00;;;18.91;35.95
70902;BME280;58548;47.210;8.618;2023-03-14T08:46:00;92623.47;;;18.84;35.94
70902;BME280;58548;47.210;8.618;2023-03-14T08:48:30;92591.84;;;18.68;35.45
70902;BME280;58548;47.210;8.618;2023-03-14T08:51:04;92516.88;;;18.19;35.49
70902;BME280;58548;47.210;8.618;2023-03-14T08:53:33;92614.22;;;18.81;35.77
70902;BME280;58548;47.210;8.618;2023-03-14T08:56:01;92629.56;;;18.84;35.74
70902;BME280;58548;47.210;8.618;2023-03-14T08:58:27;92544.91;;;18.15;35.87
70902;BME280;58548;47.210;8.618;2023-03-14T09:00:53;92642.84;;;18.74;35.59
70902;BME280;58548;47.210;8.618;2023-03-14T09:03:23;92631.19;;;18.75;35.95
70902;BME280;58548;47.210;8.618;2023-03-14T09:05:50;92641.69;;;18.86;35.38
70902;BME280;58548;47.210;8.618;2023-03-14T09:08:22;92643.75;;;18.94;35.67
70902;BME280;58548;47.210;8.618;2023-03-14T09:10:52;92598.41;;;18.76;34.58
70902;BME280;58548;47.210;8.618;2023-03-14T09:13:23;92645.50;;;19.09;34.37
70902;BME280;58548;47.210;8.618;2023-03-14T09:15:55;92586.19;;;18.46;34.04
70902;BME280;58548;47.210;8.618;2023-03-14T09:18:23;92640.06;;;18.95;34.07
70902;BME280;58548;47.210;8.618;2023-03-14T09:20:49;92642.81;;;18.79;34.01
70902;BME280;58548;47.210;8.618;2023-03-14T09:23:18;92645.13;;;18.46;33.87
70902;BME280;58548;47.210;8.618;2023-03-14T09:25:46;92630.31;;;18.50;33.69
70902;BME280;58548;47.210;8.618;2023-03-14T09:28:14;92625.38;;;18.33;33.09
70902;BME280;58548;47.210;8.618;2023-03-14T09:30:43;92615.19;;;18.11;33.86
70902;BME280;58548;47.210;8.618;2023-03-14T09:33:11;92543.53;;;17.73;34.34
70902;BME280;58548;47.210;8.618;2023-03-14T09:35:37;92521.38;;;17.63;34.17
70902;BME280;58548;47.210;8.618;2023-03-14T09:38:05;92522.22;;;17.59;34.39
70902;BME280;58548;47.210;8.618;2023-03-14T09:40:38;92630.41;;;18.30;34.51
70902;BME280;58548;47.210;8.618;2023-03-14T09:43:11;92657.38;;;18.27;34.26
70902;BME280;58548;47.210;8.618;2023-03-14T09:45:41;92648.47;;;18.17;34.79
70902;BME280;58548;47.210;8.618;2023-03-14T09:48:16;92545.22;;;17.53;34.67
70902;BME280;58548;47.210;8.618;2023-03-14T09:50:49;92648.94;;;18.24;34.20
70902;BME280;58548;47.210;8.618;2023-03-14T09:53:19;92642.75;;;18.00;34.46
70902;BME280;58548;47.210;8.618;2023-03-14T09:55:50;92651.72;;;17.99;34.74
70902;BME280;58548;47.210;8.618;2023-03-14T09:58:20;92649.78;;;18.15;34.83
70902;BME280;58548;47.210;8.618;2023-03-14T10:00:49;92584.03;;;17.47;34.01
70902;BME280;58548;47.210;8.618;2023-03-14T10:03:51;92673.88;;;18.03;34.87
70902;BME280;58548;47.210;8.618;2023-03-14T10:06:17;92664.38;;;18.02;34.03
70902;BME280;58548;47.210;8.618;2023-03-14T10:08:50;92666.50;;;17.84;34.75
70902;BME280;58548;47.210;8.618;2023-03-14T10:11:20;92615.41;;;17.54;34.32
70902;BME280;58548;47.210;8.618;2023-03-14T10:14:09;92653.28;;;17.94;34.03
70902;BME280;58548;47.210;8.618;2023-03-14T10:16:44;92566.94;;;17.24;34.25
70902;BME280;58548;47.210;8.618;2023-03-14T10:19:18;92632.31;;;17.48;34.85
70902;BME280;58548;47.210;8.618;2023-03-14T10:21:52;92559.06;;;16.98;35.06
70902;BME280;58548;47.210;8.618;2023-03-14T10:24:27;92589.13;;;17.08;35.94
70902;BME280;58548;47.210;8.618;2023-03-14T10:27:17;92691.88;;;17.80;35.09
70902;BME280;58548;47.210;8.618;2023-03-14T10:29:59;92621.75;;;17.43;35.49
70902;BME280;58548;47.210;8.618;2023-03-14T10:32:38;92692.88;;;18.05;35.62
70902;BME280;58548;47.210;8.618;2023-03-14T10:35:19;92676.00;;;18.01;35.90
70902;BME280;58548;47.210;8.618;2023-03-14T10:37:56;92673.34;;;18.06;35.01
70902;BME280;58548;47.210;8.618;2023-03-14T10:40:31;92613.31;;;17.41;35.99
70902;BME280;58548;47.210;8.618;2023-03-14T10:42:59;92674.72;;;17.77;35.95
70902;BME280;58548;47.210;8.618;2023-03-14T10:45:41;92614.66;;;17.43;36.54
70902;BME280;58548;47.210;8.618;2023-03-14T10:48:19;92729.84;;;18.15;37.14
70902;BME280;58548;47.210;8.618;2023-03-14T10:50:54;92707.66;;;18.06;37.46
70902;BME280;58548;47.210;8.618;2023-03-14T10:53:20;92729.25;;;18.23;37.36
70902;BME280;58548;47.210;8.618;2023-03-14T10:55:47;92663.41;;;17.67;37.06
70902;BME280;58548;47.210;8.618;2023-03-14T10:58:23;92752.50;;;18.27;37.85
70902;BME280;58548;47.210;8.618;2023-03-14T11:03:40;92739.09;;;17.92;38.26
70902;BME280;58548;47.210;8.618;2023-03-14T11:06:26;92684.03;;;17.49;37.76
70902;BME280;58548;47.210;8.618;2023-03-14T11:09:02;92788.50;;;18.07;38.11
70902;BME280;58548;47.210;8.618;2023-03-14T11:11:37;92785.38;;;18.00;39.00
70902;BME280;58548;47.210;8.618;2023-03-14T11:14:28;92798.53;;;17.84;39.02
70902;BME280;58548;47.210;8.618;2023-03-14T11:22:31;92817.06;;;17.53;39.50
70902;BME280;58548;47.210;8.618;2023-03-14T11:25:14;92821.28;;;17.33;39.61
70902;BME280;58548;47.210;8.618;2023-03-14T11:33:24;92785.66;;;16.41;40.86
70902;BME280;58548;47.210;8.618;2023-03-14T11:36:01;92743.34;;;16.00;40.93
70902;BME280;58548;47.210;8.618;2023-03-14T11:41:10;92869.34;;;15.86;42.91
70902;BME280;58548;47.210;8.618;2023-03-14T11:43:39;92816.63;;;15.43;42.94
70902;BME280;58548;47.210;8.618;2023-03-14T11:46:20;92865.78;;;15.70;42.29
70902;BME280;58548;47.210;8.618;2023-03-14T11:51:27;92798.00;;;14.68;43.13
70902;BME280;58548;47.210;8.618;2023-03-14T11:56:59;92922.94;;;14.98;44.09
70902;BME280;58548;47.210;8.618;2023-03-14T11:59:41;92919.84;;;14.61;43.90
70902;BME280;58548;47.210;8.618;2023-03-14T12:02:20;92910.13;;;14.06;44.72
70902;BME280;58548;47.210;8.618;2023-03-14T12:10:38;92853.19;;;13.09;45.24
70902;BME280;58548;47.210;8.618;2023-03-14T12:13:12;92921.50;;;13.60;45.04
70902;BME280;58548;47.210;8.618;2023-03-14T12:15:41;92795.13;;;12.71;44.34
70902;BME280;58548;47.210;8.618;2023-03-14T12:18:38;92923.06;;;13.61;44.47
70902;BME280;58548;47.210;8.618;2023-03-14T12:21:12;92854.00;;;13.09;43.88
70902;BME280;58548;47.210;8.618;2023-03-14T12:23:59;92794.97;;;12.61;43.88
70902;BME280;58548;47.210;8.618;2023-03-14T12:26:27;92805.63;;;12.71;44.12
70902;BME280;58548;47.210;8.618;2023-03-14T12:31:44;92951.47;;;13.64;42.59
70902;BME280;58548;47.210;8.618;2023-03-14T12:42:17;92959.53;;;13.75;42.38
70902;BME280;58548;47.210;8.618;2023-03-14T12:44:50;92832.06;;;13.16;41.49
70902;BME280;58548;47.210;8.618;2023-03-14T12:49:48;92977.28;;;14.18;40.01
70902;BME280;58548;47.210;8.618;2023-03-14T13:01:36;93028.72;;;14.02;38.89
70902;BME280;58548;47.210;8.618;2023-03-14T13:04:11;93026.72;;;13.76;39.48
70902;BME280;58548;47.210;8.618;2023-03-14T13:06:50;92919.78;;;12.96;40.00
70902;BME280;58548;47.210;8.618;2023-03-14T13:12:03;93036.34;;;13.87;39.80
70902;BME280;58548;47.210;8.618;2023-03-14T13:14:34;93041.59;;;13.87;39.13
70902;BME280;58548;47.210;8.618;2023-03-14T13:17:09;92923.41;;;13.07;39.49
70902;BME280;58548;47.210;8.618;2023-03-14T13:19:39;92993.53;;;13.69;39.09
70902;BME280;58548;47.210;8.618;2023-03-14T13:22:34;93051.41;;;14.09;38.54
70902;BME280;58548;47.210;8.618;2023-03-14T13:25:05;92989.06;;;13.53;38.73
70902;BME280;58548;47.210;8.618;2023-03-14T13:27:34;92959.09;;;13.37;38.49
70902;BME280;58548;47.210;8.618;2023-03-14T13:30:23;93071.16;;;14.11;38.30
70902;BME280;58548;47.210;8.618;2023-03-14T13:32:51;93066.38;;;14.08;38.44
70902;BME280;58548;47.210;8.618;2023-03-14T13:35:29;93074.59;;;13.83;38.55
70902;BME280;58548;47.210;8.618;2023-03-14T13:37:58;93099.56;;;14.14;38.79
70902;BME280;58548;47.210;8.618;2023-03-14T13:40:33;93063.53;;;13.81;39.08
70902;BME280;58548;47.210;8.618;2023-03-14T13:43:23;93118.44;;;14.28;39.18
70902;BME280;58548;47.210;8.618;2023-03-14T13:46:00;93095.69;;;14.17;38.95
70902;BME280;58548;47.210;8.618;2023-03-14T13:48:29;93138.44;;;14.29;38.61
70902;BME280;58548;47.210;8.618;2023-03-14T13:51:00;93137.75;;;14.22;39.21
70902;BME280;58548;47.210;8.618;2023-03-14T13:53:27;93132.34;;;14.58;38.36
70902;BME280;58548;47.210;8.618;2023-03-14T13:55:54;93129.63;;;14.36;38.08
70902;BME280;58548;47.210;8.618;2023-03-14T13:58:29;93156.19;;;14.39;38.23
70902;BME280;58548;47.210;8.618;2023-03-14T14:01:03;93166.13;;;14.37;37.91
70902;BME280;58548;47.210;8.618;2023-03-14T14:03:33;93162.69;;;14.66;37.88
70902;BME280;58548;47.210;8.618;2023-03-14T14:06:01;93167.69;;;14.50;37.68
70902;BME280;58548;47.210;8.618;2023-03-14T14:08:30;93176.78;;;14.59;37.34
70902;BME280;58548;47.210;8.618;2023-03-14T14:11:02;93154.44;;;14.74;37.75
70902;BME280;58548;47.210;8.618;2023-03-14T14:13:34;93018.47;;;14.01;36.54
70902;BME280;58548;47.210;8.618;2023-03-14T14:16:03;93172.31;;;14.89;35.86
70902;BME280;58548;47.210;8.618;2023-03-14T14:18:32;93174.19;;;14.76;36.04
70902;BME280;58548;47.210;8.618;2023-03-14T14:20:59;93146.91;;;14.66;36.04
70902;BME280;58548;47.210;8.618;2023-03-14T14:23:27;93135.28;;;14.44;35.59
70902;BME280;58548;47.210;8.618;2023-03-14T14:25:59;93147.53;;;14.39;35.67
70902;BME280;58548;47.210;8.618;2023-03-14T14:28:35;93061.94;;;13.80;35.65
70902;BME280;58548;47.210;8.618;2023-03-14T14:33:39;93171.66;;;14.82;35.76